This is the latest recevied weather packets stored in our database for station/object KG5MMT-12. If no packets are shown the sender has not sent any weather packets the latest 10 day(s).
| Time | Temp. | Humidity | Pressure | Rain* | Wind** | Luminosity | Snow |
|---|---|---|---|---|---|---|---|
| 1788361748 | 20° C | 60% | 0 hPa | 0 mm | - | - | - |
| 1788361445 | 18.89° C | 63% | 0 hPa | 0 mm | - | - | - |
| 1788361147 | 17.78° C | 69% | 0 hPa | 0 mm | - | - | - |
| 1788360846 | 16.67° C | 78% | 0 hPa | 0 mm | - | - | - |
| 1788360246 | 15.56° C | 81% | 0 hPa | 0 mm | - | - | - |
| 1788359948 | 15° C | 82% | 0 hPa | 0 mm | - | - | - |
| 1788359646 | 15° C | 82% | 0 hPa | 0 mm | - | - | - |
| 1788359348 | 14.44° C | 83% | 0 hPa | 0 mm | - | - | - |
| 1788359046 | 13.89° C | 85% | 0 hPa | 0 mm | - | - | - |
| 1788358746 | 13.89° C | 87% | 0 hPa | 0 mm | - | - | - |
| 1788358446 | 13.33° C | 88% | 0 hPa | 0 mm | - | - | - |
| 1788358148 | 13.33° C | 88% | 0 hPa | 0 mm | - | - | - |
| 1788357846 | 13.33° C | 88% | 0 hPa | 0 mm | - | - | - |
| 1788357548 | 13.33° C | 88% | 0 hPa | 0 mm | - | - | - |
| 1788357246 | 13.33° C | 88% | 0 hPa | 0 mm | - | - | - |
| 1788356946 | 13.33° C | 88% | 0 hPa | 0 mm | - | - | - |
| 1788356348 | 13.33° C | 88% | 0 hPa | 0 mm | - | - | - |
| 1788356046 | 13.33° C | 88% | 0 hPa | 0 mm | - | - | - |
| 1788355748 | 12.78° C | 88% | 0 hPa | 0 mm | - | - | - |
| 1788355446 | 12.78° C | 88% | 0 hPa | 0 mm | - | - | - |
| 1788355146 | 12.78° C | 88% | 0 hPa | 0 mm | - | - | - |
| 1788354846 | 12.78° C | 88% | 0 hPa | 0 mm | - | - | - |
| 1788354548 | 12.78° C | 88% | 0 hPa | 0 mm | - | - | - |
| 1788354246 | 12.78° C | 89% | 0 hPa | 0 mm | - | - | - |
| 1788353948 | 12.78° C | 89% | 0 hPa | 0 mm | - | - | - |
* Rain latest hour (hover to see other rain measurements)
** Current wind speed in m/s (hover to see current wind gust speed)